sensor_id;sensor_type;location;lat;lon;timestamp;P1;durP1;ratioP1;P2;durP2;ratioP2
21305;SDS011;10812;51.838;5.838;2023-08-20T00:00:08;13.27;;;8.10;;
21305;SDS011;10812;51.838;5.838;2023-08-20T00:02:37;11.85;;;7.53;;
21305;SDS011;10812;51.838;5.838;2023-08-20T00:16:25;9.27;;;6.38;;
21305;SDS011;10812;51.838;5.838;2023-08-20T00:18:54;9.43;;;6.05;;
21305;SDS011;10812;51.838;5.838;2023-08-20T00:21:23;10.80;;;6.00;;
21305;SDS011;10812;51.838;5.838;2023-08-20T00:23:52;7.63;;;5.95;;
21305;SDS011;10812;51.838;5.838;2023-08-20T00:26:21;10.38;;;6.18;;
21305;SDS011;10812;51.838;5.838;2023-08-20T00:47:16;8.07;;;5.10;;
21305;SDS011;10812;51.838;5.838;2023-08-20T00:49:46;8.93;;;5.57;;
21305;SDS011;10812;51.838;5.838;2023-08-20T00:52:15;8.80;;;5.68;;
21305;SDS011;10812;51.838;5.838;2023-08-20T00:54:44;7.95;;;5.10;;
21305;SDS011;10812;51.838;5.838;2023-08-20T00:57:14;11.48;;;5.45;;
21305;SDS011;10812;51.838;5.838;2023-08-20T00:59:44;8.57;;;5.32;;
21305;SDS011;10812;51.838;5.838;2023-08-20T01:02:17;9.90;;;6.05;;
21305;SDS011;10812;51.838;5.838;2023-08-20T01:04:46;7.55;;;4.90;;
21305;SDS011;10812;51.838;5.838;2023-08-20T01:07:17;10.80;;;5.38;;
21305;SDS011;10812;51.838;5.838;2023-08-20T01:09:54;6.50;;;4.53;;
21305;SDS011;10812;51.838;5.838;2023-08-20T01:12:27;7.65;;;4.72;;
21305;SDS011;10812;51.838;5.838;2023-08-20T01:14:56;6.05;;;4.55;;
21305;SDS011;10812;51.838;5.838;2023-08-20T01:17:26;5.97;;;4.20;;
21305;SDS011;10812;51.838;5.838;2023-08-20T01:19:54;7.13;;;4.50;;
21305;SDS011;10812;51.838;5.838;2023-08-20T01:22:37;7.63;;;4.75;;
21305;SDS011;10812;51.838;5.838;2023-08-20T01:25:24;7.53;;;4.60;;
21305;SDS011;10812;51.838;5.838;2023-08-20T01:28:18;5.68;;;4.43;;
21305;SDS011;10812;51.838;5.838;2023-08-20T01:30:54;9.70;;;4.75;;
21305;SDS011;10812;51.838;5.838;2023-08-20T01:33:25;5.60;;;4.13;;
21305;SDS011;10812;51.838;5.838;2023-08-20T01:35:54;8.70;;;5.15;;
21305;SDS011;10812;51.838;5.838;2023-08-20T01:38:22;5.80;;;4.15;;
21305;SDS011;10812;51.838;5.838;2023-08-20T01:40:50;7.22;;;4.40;;
21305;SDS011;10812;51.838;5.838;2023-08-20T01:43:20;6.38;;;4.40;;
21305;SDS011;10812;51.838;5.838;2023-08-20T01:45:48;6.47;;;3.90;;
21305;SDS011;10812;51.838;5.838;2023-08-20T01:48:16;5.40;;;3.80;;
21305;SDS011;10812;51.838;5.838;2023-08-20T01:50:44;8.25;;;3.80;;
21305;SDS011;10812;51.838;5.838;2023-08-20T01:53:12;4.97;;;3.78;;
21305;SDS011;10812;51.838;5.838;2023-08-20T01:55:40;5.50;;;3.50;;
21305;SDS011;10812;51.838;5.838;2023-08-20T01:58:08;3.40;;;2.92;;
21305;SDS011;10812;51.838;5.838;2023-08-20T02:00:38;6.35;;;3.20;;
21305;SDS011;10812;51.838;5.838;2023-08-20T02:03:06;5.40;;;3.20;;
21305;SDS011;10812;51.838;5.838;2023-08-20T02:05:34;4.80;;;3.00;;
21305;SDS011;10812;51.838;5.838;2023-08-20T02:08:03;4.60;;;2.40;;
21305;SDS011;10812;51.838;5.838;2023-08-20T02:10:31;4.80;;;2.65;;
21305;SDS011;10812;51.838;5.838;2023-08-20T02:12:59;5.80;;;2.90;;
21305;SDS011;10812;51.838;5.838;2023-08-20T02:15:28;5.60;;;2.95;;
21305;SDS011;10812;51.838;5.838;2023-08-20T02:17:58;4.53;;;2.70;;
21305;SDS011;10812;51.838;5.838;2023-08-20T02:20:27;4.45;;;2.60;;
21305;SDS011;10812;51.838;5.838;2023-08-20T02:22:55;4.55;;;2.55;;
21305;SDS011;10812;51.838;5.838;2023-08-20T02:25:24;8.48;;;3.30;;
21305;SDS011;10812;51.838;5.838;2023-08-20T02:27:52;6.55;;;3.38;;
21305;SDS011;10812;51.838;5.838;2023-08-20T02:30:20;6.28;;;4.03;;
21305;SDS011;10812;51.838;5.838;2023-08-20T02:32:48;5.78;;;4.15;;
21305;SDS011;10812;51.838;5.838;2023-08-20T02:35:17;7.65;;;3.97;;
21305;SDS011;10812;51.838;5.838;2023-08-20T02:37:45;6.53;;;4.10;;
21305;SDS011;10812;51.838;5.838;2023-08-20T02:40:13;9.00;;;4.70;;
21305;SDS011;10812;51.838;5.838;2023-08-20T02:42:42;7.50;;;3.85;;
21305;SDS011;10812;51.838;5.838;2023-08-20T02:45:10;7.75;;;4.32;;
21305;SDS011;10812;51.838;5.838;2023-08-20T02:47:38;6.85;;;4.57;;
21305;SDS011;10812;51.838;5.838;2023-08-20T02:50:06;8.13;;;4.85;;
21305;SDS011;10812;51.838;5.838;2023-08-20T02:52:36;6.30;;;4.75;;
21305;SDS011;10812;51.838;5.838;2023-08-20T02:55:04;6.60;;;4.65;;
21305;SDS011;10812;51.838;5.838;2023-08-20T02:57:32;9.07;;;4.45;;
21305;SDS011;10812;51.838;5.838;2023-08-20T03:00:01;6.60;;;4.20;;
21305;SDS011;10812;51.838;5.838;2023-08-20T03:07:48;7.20;;;4.90;;
21305;SDS011;10812;51.838;5.838;2023-08-20T03:10:17;7.65;;;5.10;;
21305;SDS011;10812;51.838;5.838;2023-08-20T03:12:45;8.75;;;5.18;;
21305;SDS011;10812;51.838;5.838;2023-08-20T03:15:13;8.52;;;4.80;;
21305;SDS011;10812;51.838;5.838;2023-08-20T03:17:41;6.93;;;4.85;;
21305;SDS011;10812;51.838;5.838;2023-08-20T03:20:09;8.82;;;5.43;;
21305;SDS011;10812;51.838;5.838;2023-08-20T03:22:38;9.73;;;5.13;;
21305;SDS011;10812;51.838;5.838;2023-08-20T03:25:08;8.40;;;5.63;;
21305;SDS011;10812;51.838;5.838;2023-08-20T03:27:36;11.25;;;5.38;;
21305;SDS011;10812;51.838;5.838;2023-08-20T03:30:04;10.90;;;6.43;;
21305;SDS011;10812;51.838;5.838;2023-08-20T03:32:33;9.63;;;5.80;;
21305;SDS011;10812;51.838;5.838;2023-08-20T03:35:01;8.75;;;6.18;;
21305;SDS011;10812;51.838;5.838;2023-08-20T03:37:29;8.45;;;6.72;;
21305;SDS011;10812;51.838;5.838;2023-08-20T03:39:58;9.13;;;6.63;;
21305;SDS011;10812;51.838;5.838;2023-08-20T03:42:27;8.55;;;6.53;;
21305;SDS011;10812;51.838;5.838;2023-08-20T03:44:55;8.90;;;6.60;;
21305;SDS011;10812;51.838;5.838;2023-08-20T03:47:23;10.05;;;6.85;;
21305;SDS011;10812;51.838;5.838;2023-08-20T03:49:51;10.50;;;7.47;;
21305;SDS011;10812;51.838;5.838;2023-08-20T03:52:19;12.30;;;7.80;;
21305;SDS011;10812;51.838;5.838;2023-08-20T03:54:47;7.65;;;6.82;;
21305;SDS011;10812;51.838;5.838;2023-08-20T03:57:16;11.48;;;7.70;;
21305;SDS011;10812;51.838;5.838;2023-08-20T03:59:46;15.23;;;8.30;;
21305;SDS011;10812;51.838;5.838;2023-08-20T04:02:14;8.35;;;7.38;;
21305;SDS011;10812;51.838;5.838;2023-08-20T04:04:42;9.40;;;7.70;;
21305;SDS011;10812;51.838;5.838;2023-08-20T04:07:10;9.73;;;8.02;;
21305;SDS011;10812;51.838;5.838;2023-08-20T04:09:38;12.68;;;8.77;;
21305;SDS011;10812;51.838;5.838;2023-08-20T04:12:08;13.55;;;8.32;;
21305;SDS011;10812;51.838;5.838;2023-08-20T04:14:36;9.40;;;8.25;;
21305;SDS011;10812;51.838;5.838;2023-08-20T04:17:06;11.85;;;9.45;;
21305;SDS011;10812;51.838;5.838;2023-08-20T04:19:34;12.82;;;8.38;;
21305;SDS011;10812;51.838;5.838;2023-08-20T04:22:02;9.65;;;8.63;;
21305;SDS011;10812;51.838;5.838;2023-08-20T04:24:30;9.93;;;8.00;;
21305;SDS011;10812;51.838;5.838;2023-08-20T04:26:58;10.40;;;8.10;;
21305;SDS011;10812;51.838;5.838;2023-08-20T04:29:26;12.43;;;8.15;;
21305;SDS011;10812;51.838;5.838;2023-08-20T04:31:54;11.77;;;8.73;;
21305;SDS011;10812;51.838;5.838;2023-08-20T04:34:24;9.02;;;7.53;;
21305;SDS011;10812;51.838;5.838;2023-08-20T04:36:52;12.00;;;7.70;;
21305;SDS011;10812;51.838;5.838;2023-08-20T04:39:20;13.57;;;8.70;;
21305;SDS011;10812;51.838;5.838;2023-08-20T04:41:48;11.73;;;8.23;;
21305;SDS011;10812;51.838;5.838;2023-08-20T04:44:16;15.45;;;8.32;;
21305;SDS011;10812;51.838;5.838;2023-08-20T04:46:44;9.18;;;8.27;;
21305;SDS011;10812;51.838;5.838;2023-08-20T04:49:12;11.00;;;7.57;;
21305;SDS011;10812;51.838;5.838;2023-08-20T04:51:41;9.75;;;7.35;;
21305;SDS011;10812;51.838;5.838;2023-08-20T05:01:44;10.77;;;7.57;;
21305;SDS011;10812;51.838;5.838;2023-08-20T05:04:12;10.85;;;9.23;;
21305;SDS011;10812;51.838;5.838;2023-08-20T05:06:41;11.88;;;8.63;;
21305;SDS011;10812;51.838;5.838;2023-08-20T05:09:09;12.73;;;8.15;;
21305;SDS011;10812;51.838;5.838;2023-08-20T05:11:37;11.25;;;7.88;;
21305;SDS011;10812;51.838;5.838;2023-08-20T05:14:05;13.80;;;8.52;;
21305;SDS011;10812;51.838;5.838;2023-08-20T05:16:33;10.63;;;9.32;;
21305;SDS011;10812;51.838;5.838;2023-08-20T05:19:02;10.30;;;8.73;;
21305;SDS011;10812;51.838;5.838;2023-08-20T05:21:30;15.13;;;11.18;;
21305;SDS011;10812;51.838;5.838;2023-08-20T05:23:59;13.38;;;11.05;;
21305;SDS011;10812;51.838;5.838;2023-08-20T05:26:28;13.80;;;9.75;;
21305;SDS011;10812;51.838;5.838;2023-08-20T05:28:55;13.48;;;10.50;;
21305;SDS011;10812;51.838;5.838;2023-08-20T05:31:24;13.30;;;10.10;;
21305;SDS011;10812;51.838;5.838;2023-08-20T05:33:52;10.63;;;9.40;;
21305;SDS011;10812;51.838;5.838;2023-08-20T05:36:20;13.55;;;10.35;;
21305;SDS011;10812;51.838;5.838;2023-08-20T05:38:48;10.25;;;9.23;;
21305;SDS011;10812;51.838;5.838;2023-08-20T05:41:17;13.25;;;9.52;;
21305;SDS011;10812;51.838;5.838;2023-08-20T05:43:45;11.55;;;9.70;;
21305;SDS011;10812;51.838;5.838;2023-08-20T05:46:13;11.10;;;9.90;;
21305;SDS011;10812;51.838;5.838;2023-08-20T05:48:41;12.10;;;10.90;;
21305;SDS011;10812;51.838;5.838;2023-08-20T05:51:09;13.52;;;11.23;;
21305;SDS011;10812;51.838;5.838;2023-08-20T05:53:37;16.73;;;11.93;;
21305;SDS011;10812;51.838;5.838;2023-08-20T05:56:05;14.20;;;11.40;;
21305;SDS011;10812;51.838;5.838;2023-08-20T05:58:35;13.25;;;11.63;;
21305;SDS011;10812;51.838;5.838;2023-08-20T06:01:04;14.07;;;10.82;;
21305;SDS011;10812;51.838;5.838;2023-08-20T06:03:32;11.73;;;10.35;;
21305;SDS011;10812;51.838;5.838;2023-08-20T06:06:00;13.55;;;10.80;;
21305;SDS011;10812;51.838;5.838;2023-08-20T06:08:31;16.20;;;10.48;;
21305;SDS011;10812;51.838;5.838;2023-08-20T06:10:59;11.38;;;9.73;;
21305;SDS011;10812;51.838;5.838;2023-08-20T06:13:28;10.88;;;8.85;;
21305;SDS011;10812;51.838;5.838;2023-08-20T06:15:58;8.50;;;6.60;;
21305;SDS011;10812;51.838;5.838;2023-08-20T06:18:26;6.00;;;5.40;;
21305;SDS011;10812;51.838;5.838;2023-08-20T06:20:54;6.80;;;4.72;;
21305;SDS011;10812;51.838;5.838;2023-08-20T06:23:22;7.28;;;4.68;;
21305;SDS011;10812;51.838;5.838;2023-08-20T06:26:09;8.85;;;4.47;;
21305;SDS011;10812;51.838;5.838;2023-08-20T06:28:37;5.22;;;3.30;;
21305;SDS011;10812;51.838;5.838;2023-08-20T06:31:07;5.72;;;3.05;;
21305;SDS011;10812;51.838;5.838;2023-08-20T06:33:35;5.22;;;3.00;;
21305;SDS011;10812;51.838;5.838;2023-08-20T06:39:50;5.28;;;2.58;;
21305;SDS011;10812;51.838;5.838;2023-08-20T06:42:18;6.43;;;2.72;;
21305;SDS011;10812;51.838;5.838;2023-08-20T06:44:46;4.13;;;2.17;;
21305;SDS011;10812;51.838;5.838;2023-08-20T06:47:15;5.75;;;2.25;;
21305;SDS011;10812;51.838;5.838;2023-08-20T06:53:24;4.38;;;2.28;;
21305;SDS011;10812;51.838;5.838;2023-08-20T06:55:52;4.18;;;1.98;;
21305;SDS011;10812;51.838;5.838;2023-08-20T06:58:20;4.50;;;1.98;;
21305;SDS011;10812;51.838;5.838;2023-08-20T07:00:48;4.22;;;1.90;;
21305;SDS011;10812;51.838;5.838;2023-08-20T07:03:18;4.00;;;1.77;;
21305;SDS011;10812;51.838;5.838;2023-08-20T07:05:46;4.53;;;1.88;;
21305;SDS011;10812;51.838;5.838;2023-08-20T07:08:14;3.10;;;1.98;;
21305;SDS011;10812;51.838;5.838;2023-08-20T07:10:42;4.28;;;1.88;;
21305;SDS011;10812;51.838;5.838;2023-08-20T07:16:57;4.53;;;1.58;;
21305;SDS011;10812;51.838;5.838;2023-08-20T07:19:30;4.13;;;1.52;;
21305;SDS011;10812;51.838;5.838;2023-08-20T07:21:58;3.92;;;1.80;;
21305;SDS011;10812;51.838;5.838;2023-08-20T07:24:26;2.25;;;1.52;;
21305;SDS011;10812;51.838;5.838;2023-08-20T07:26:56;3.80;;;1.75;;
21305;SDS011;10812;51.838;5.838;2023-08-20T07:29:27;4.72;;;1.50;;
21305;SDS011;10812;51.838;5.838;2023-08-20T07:31:56;5.03;;;1.90;;
21305;SDS011;10812;51.838;5.838;2023-08-20T07:34:24;2.75;;;1.70;;
21305;SDS011;10812;51.838;5.838;2023-08-20T07:36:53;3.63;;;1.63;;
21305;SDS011;10812;51.838;5.838;2023-08-20T07:43:10;3.00;;;1.48;;
21305;SDS011;10812;51.838;5.838;2023-08-20T07:45:38;2.42;;;1.55;;
21305;SDS011;10812;51.838;5.838;2023-08-20T07:48:06;3.15;;;2.03;;
21305;SDS011;10812;51.838;5.838;2023-08-20T07:50:35;3.00;;;1.80;;
21305;SDS011;10812;51.838;5.838;2023-08-20T07:53:04;3.80;;;1.73;;
21305;SDS011;10812;51.838;5.838;2023-08-20T07:55:32;3.17;;;1.70;;
21305;SDS011;10812;51.838;5.838;2023-08-20T07:58:00;4.97;;;2.00;;
21305;SDS011;10812;51.838;5.838;2023-08-20T08:00:28;3.17;;;1.88;;
21305;SDS011;10812;51.838;5.838;2023-08-20T08:02:56;3.15;;;1.70;;
21305;SDS011;10812;51.838;5.838;2023-08-20T08:05:24;4.20;;;1.70;;
21305;SDS011;10812;51.838;5.838;2023-08-20T08:07:52;1.95;;;1.30;;
21305;SDS011;10812;51.838;5.838;2023-08-20T08:10:22;5.43;;;2.13;;
21305;SDS011;10812;51.838;5.838;2023-08-20T08:12:50;5.68;;;1.42;;
21305;SDS011;10812;51.838;5.838;2023-08-20T08:15:18;3.95;;;1.75;;
21305;SDS011;10812;51.838;5.838;2023-08-20T08:17:46;3.08;;;1.88;;
21305;SDS011;10812;51.838;5.838;2023-08-20T08:20:14;5.90;;;1.60;;
21305;SDS011;10812;51.838;5.838;2023-08-20T08:22:43;3.60;;;1.50;;
21305;SDS011;10812;51.838;5.838;2023-08-20T08:25:11;3.78;;;1.88;;
21305;SDS011;10812;51.838;5.838;2023-08-20T08:27:41;10.93;;;2.50;;
21305;SDS011;10812;51.838;5.838;2023-08-20T08:30:26;5.10;;;1.98;;
21305;SDS011;10812;51.838;5.838;2023-08-20T08:32:55;3.03;;;1.40;;
21305;SDS011;10812;51.838;5.838;2023-08-20T08:45:55;3.95;;;1.65;;
21305;SDS011;10812;51.838;5.838;2023-08-20T08:48:24;3.38;;;1.60;;
21305;SDS011;10812;51.838;5.838;2023-08-20T08:50:53;2.90;;;1.92;;
21305;SDS011;10812;51.838;5.838;2023-08-20T08:53:22;3.38;;;1.75;;
21305;SDS011;10812;51.838;5.838;2023-08-20T08:55:52;4.53;;;2.20;;
21305;SDS011;10812;51.838;5.838;2023-08-20T08:58:20;3.20;;;2.10;;
21305;SDS011;10812;51.838;5.838;2023-08-20T09:00:49;2.33;;;2.05;;
21305;SDS011;10812;51.838;5.838;2023-08-20T09:03:17;4.07;;;1.80;;
21305;SDS011;10812;51.838;5.838;2023-08-20T09:05:46;3.78;;;1.85;;
21305;SDS011;10812;51.838;5.838;2023-08-20T09:08:21;5.25;;;1.83;;
21305;SDS011;10812;51.838;5.838;2023-08-20T09:10:50;2.65;;;1.60;;
21305;SDS011;10812;51.838;5.838;2023-08-20T09:13:22;3.15;;;1.73;;
21305;SDS011;10812;51.838;5.838;2023-08-20T09:15:53;11.15;;;1.67;;
21305;SDS011;10812;51.838;5.838;2023-08-20T09:18:21;4.97;;;2.20;;
21305;SDS011;10812;51.838;5.838;2023-08-20T09:20:49;3.40;;;1.70;;
21305;SDS011;10812;51.838;5.838;2023-08-20T09:23:18;3.00;;;1.80;;
21305;SDS011;10812;51.838;5.838;2023-08-20T09:25:46;2.28;;;1.20;;
21305;SDS011;10812;51.838;5.838;2023-08-20T09:43:35;1.58;;;1.30;;
21305;SDS011;10812;51.838;5.838;2023-08-20T09:46:05;3.08;;;1.27;;
21305;SDS011;10812;51.838;5.838;2023-08-20T09:48:36;1.77;;;1.00;;
21305;SDS011;10812;51.838;5.838;2023-08-20T09:51:10;2.83;;;1.30;;
21305;SDS011;10812;51.838;5.838;2023-08-20T09:53:41;1.40;;;1.17;;
21305;SDS011;10812;51.838;5.838;2023-08-20T09:59:00;1.48;;;0.73;;
21305;SDS011;10812;51.838;5.838;2023-08-20T10:01:29;1.50;;;1.00;;
21305;SDS011;10812;51.838;5.838;2023-08-20T10:03:57;2.33;;;1.05;;
21305;SDS011;10812;51.838;5.838;2023-08-20T10:06:27;2.13;;;1.02;;
21305;SDS011;10812;51.838;5.838;2023-08-20T10:08:56;1.17;;;1.05;;
21305;SDS011;10812;51.838;5.838;2023-08-20T10:11:25;1.77;;;1.05;;
21305;SDS011;10812;51.838;5.838;2023-08-20T10:13:54;1.40;;;0.80;;
21305;SDS011;10812;51.838;5.838;2023-08-20T10:16:23;1.08;;;0.82;;
21305;SDS011;10812;51.838;5.838;2023-08-20T10:18:54;1.80;;;1.00;;
21305;SDS011;10812;51.838;5.838;2023-08-20T10:21:25;1.05;;;0.63;;
21305;SDS011;10812;51.838;5.838;2023-08-20T10:23:54;1.67;;;0.93;;
21305;SDS011;10812;51.838;5.838;2023-08-20T10:26:23;1.13;;;0.90;;
21305;SDS011;10812;51.838;5.838;2023-08-20T10:28:52;1.00;;;0.85;;
21305;SDS011;10812;51.838;5.838;2023-08-20T10:32:11;1.15;;;0.80;;
21305;SDS011;10812;51.838;5.838;2023-08-20T10:34:42;1.95;;;0.90;;
21305;SDS011;10812;51.838;5.838;2023-08-20T10:37:15;1.23;;;0.80;;
21305;SDS011;10812;51.838;5.838;2023-08-20T10:39:43;2.47;;;0.80;;
21305;SDS011;10812;51.838;5.838;2023-08-20T10:42:22;2.03;;;0.98;;
21305;SDS011;10812;51.838;5.838;2023-08-20T10:44:56;1.42;;;0.77;;
21305;SDS011;10812;51.838;5.838;2023-08-20T10:47:26;1.30;;;0.85;;
21305;SDS011;10812;51.838;5.838;2023-08-20T10:50:04;1.38;;;0.55;;
21305;SDS011;10812;51.838;5.838;2023-08-20T10:52:37;0.55;;;0.47;;
21305;SDS011;10812;51.838;5.838;2023-08-20T10:55:07;0.93;;;0.68;;
21305;SDS011;10812;51.838;5.838;2023-08-20T10:57:35;0.70;;;0.65;;
21305;SDS011;10812;51.838;5.838;2023-08-20T11:03:10;1.40;;;0.50;;
21305;SDS011;10812;51.838;5.838;2023-08-20T11:05:39;2.17;;;0.70;;
21305;SDS011;10812;51.838;5.838;2023-08-20T11:24:02;2.28;;;0.98;;
21305;SDS011;10812;51.838;5.838;2023-08-20T11:26:30;1.08;;;0.50;;
21305;SDS011;10812;51.838;5.838;2023-08-20T11:28:59;2.45;;;0.95;;
21305;SDS011;10812;51.838;5.838;2023-08-20T11:31:27;2.78;;;0.95;;
21305;SDS011;10812;51.838;5.838;2023-08-20T11:33:56;2.38;;;0.85;;
21305;SDS011;10812;51.838;5.838;2023-08-20T11:36:25;1.77;;;0.68;;
21305;SDS011;10812;51.838;5.838;2023-08-20T11:38:53;2.28;;;0.88;;
21305;SDS011;10812;51.838;5.838;2023-08-20T11:41:23;2.17;;;0.60;;
21305;SDS011;10812;51.838;5.838;2023-08-20T11:43:52;2.75;;;1.08;;
21305;SDS011;10812;51.838;5.838;2023-08-20T11:46:22;1.33;;;0.57;;
21305;SDS011;10812;51.838;5.838;2023-08-20T11:49:01;5.57;;;0.93;;
21305;SDS011;10812;51.838;5.838;2023-08-20T11:51:34;2.97;;;0.93;;
21305;SDS011;10812;51.838;5.838;2023-08-20T11:54:04;1.15;;;0.57;;
21305;SDS011;10812;51.838;5.838;2023-08-20T11:56:34;3.63;;;0.90;;
21305;SDS011;10812;51.838;5.838;2023-08-20T11:59:03;3.63;;;1.00;;
21305;SDS011;10812;51.838;5.838;2023-08-20T12:01:31;4.80;;;1.88;;
21305;SDS011;10812;51.838;5.838;2023-08-20T12:04:00;4.95;;;2.45;;
21305;SDS011;10812;51.838;5.838;2023-08-20T12:06:29;2.22;;;1.25;;
21305;SDS011;10812;51.838;5.838;2023-08-20T12:08:57;2.65;;;0.85;;
21305;SDS011;10812;51.838;5.838;2023-08-20T12:11:25;3.08;;;1.00;;
21305;SDS011;10812;51.838;5.838;2023-08-20T12:13:56;3.83;;;1.70;;
21305;SDS011;10812;51.838;5.838;2023-08-20T12:16:24;4.63;;;1.77;;
21305;SDS011;10812;51.838;5.838;2023-08-20T12:18:52;2.75;;;1.00;;
21305;SDS011;10812;51.838;5.838;2023-08-20T12:21:20;2.13;;;0.93;;
21305;SDS011;10812;51.838;5.838;2023-08-20T12:23:48;3.33;;;1.20;;
21305;SDS011;10812;51.838;5.838;2023-08-20T12:26:16;3.85;;;1.35;;
21305;SDS011;10812;51.838;5.838;2023-08-20T12:28:44;2.88;;;1.13;;
21305;SDS011;10812;51.838;5.838;2023-08-20T12:31:14;4.68;;;1.10;;
21305;SDS011;10812;51.838;5.838;2023-08-20T12:33:42;4.32;;;0.90;;
21305;SDS011;10812;51.838;5.838;2023-08-20T12:36:10;0.55;;;0.55;;
21305;SDS011;10812;51.838;5.838;2023-08-20T12:38:38;1.17;;;0.93;;
21305;SDS011;10812;51.838;5.838;2023-08-20T12:41:08;3.13;;;0.80;;
21305;SDS011;10812;51.838;5.838;2023-08-20T12:43:36;3.45;;;0.85;;
21305;SDS011;10812;51.838;5.838;2023-08-20T12:46:04;1.92;;;1.35;;
21305;SDS011;10812;51.838;5.838;2023-08-20T12:48:33;2.47;;;0.95;;
21305;SDS011;10812;51.838;5.838;2023-08-20T12:51:01;2.13;;;0.85;;
21305;SDS011;10812;51.838;5.838;2023-08-20T12:53:31;2.42;;;1.00;;
21305;SDS011;10812;51.838;5.838;2023-08-20T12:56:00;1.90;;;0.85;;
21305;SDS011;10812;51.838;5.838;2023-08-20T12:58:28;3.30;;;1.10;;
21305;SDS011;10812;51.838;5.838;2023-08-20T13:00:55;3.10;;;0.95;;
21305;SDS011;10812;51.838;5.838;2023-08-20T13:03:24;2.88;;;0.75;;
21305;SDS011;10812;51.838;5.838;2023-08-20T13:05:56;3.97;;;1.00;;
21305;SDS011;10812;51.838;5.838;2023-08-20T13:08:25;2.65;;;0.77;;
21305;SDS011;10812;51.838;5.838;2023-08-20T13:10:54;2.53;;;1.00;;
21305;SDS011;10812;51.838;5.838;2023-08-20T13:13:23;2.70;;;1.05;;
21305;SDS011;10812;51.838;5.838;2023-08-20T13:15:53;2.50;;;0.95;;
21305;SDS011;10812;51.838;5.838;2023-08-20T13:18:22;2.85;;;1.17;;
21305;SDS011;10812;51.838;5.838;2023-08-20T13:20:51;2.53;;;0.90;;
21305;SDS011;10812;51.838;5.838;2023-08-20T13:23:21;1.33;;;0.65;;
21305;SDS011;10812;51.838;5.838;2023-08-20T13:25:50;3.67;;;1.30;;
21305;SDS011;10812;51.838;5.838;2023-08-20T13:28:18;1.80;;;0.80;;
21305;SDS011;10812;51.838;5.838;2023-08-20T13:30:46;2.15;;;0.90;;
21305;SDS011;10812;51.838;5.838;2023-08-20T13:33:14;3.80;;;1.13;;
21305;SDS011;10812;51.838;5.838;2023-08-20T13:35:42;2.05;;;1.02;;
21305;SDS011;10812;51.838;5.838;2023-08-20T13:38:10;2.50;;;0.98;;
21305;SDS011;10812;51.838;5.838;2023-08-20T13:40:40;3.08;;;1.02;;
21305;SDS011;10812;51.838;5.838;2023-08-20T13:43:08;2.60;;;0.90;;
21305;SDS011;10812;51.838;5.838;2023-08-20T13:45:36;1.83;;;0.75;;
21305;SDS011;10812;51.838;5.838;2023-08-20T13:48:04;3.28;;;1.20;;
21305;SDS011;10812;51.838;5.838;2023-08-20T13:50:34;3.28;;;0.82;;
21305;SDS011;10812;51.838;5.838;2023-08-20T13:53:02;3.25;;;0.70;;
21305;SDS011;10812;51.838;5.838;2023-08-20T13:55:30;3.03;;;0.98;;
21305;SDS011;10812;51.838;5.838;2023-08-20T13:57:59;2.33;;;0.90;;
21305;SDS011;10812;51.838;5.838;2023-08-20T14:00:28;3.10;;;0.90;;
21305;SDS011;10812;51.838;5.838;2023-08-20T14:02:57;2.28;;;0.82;;
21305;SDS011;10812;51.838;5.838;2023-08-20T14:05:25;2.22;;;0.80;;
21305;SDS011;10812;51.838;5.838;2023-08-20T14:07:55;4.07;;;2.47;;
21305;SDS011;10812;51.838;5.838;2023-08-20T14:10:24;3.80;;;0.95;;
21305;SDS011;10812;51.838;5.838;2023-08-20T14:12:52;3.60;;;1.77;;
21305;SDS011;10812;51.838;5.838;2023-08-20T14:15:21;2.88;;;1.10;;
21305;SDS011;10812;51.838;5.838;2023-08-20T14:17:49;2.60;;;0.90;;
21305;SDS011;10812;51.838;5.838;2023-08-20T14:20:17;1.35;;;0.80;;
21305;SDS011;10812;51.838;5.838;2023-08-20T14:22:46;3.88;;;1.40;;
21305;SDS011;10812;51.838;5.838;2023-08-20T14:25:14;3.22;;;0.80;;
21305;SDS011;10812;51.838;5.838;2023-08-20T14:27:42;4.18;;;1.02;;
21305;SDS011;10812;51.838;5.838;2023-08-20T14:30:10;2.80;;;0.88;;
21305;SDS011;10812;51.838;5.838;2023-08-20T14:32:40;2.17;;;1.23;;
21305;SDS011;10812;51.838;5.838;2023-08-20T14:35:08;1.83;;;0.88;;
21305;SDS011;10812;51.838;5.838;2023-08-20T14:37:37;2.42;;;1.02;;
21305;SDS011;10812;51.838;5.838;2023-08-20T14:40:05;3.00;;;0.80;;
21305;SDS011;10812;51.838;5.838;2023-08-20T14:42:36;3.60;;;1.00;;
21305;SDS011;10812;51.838;5.838;2023-08-20T14:45:05;1.30;;;0.60;;
21305;SDS011;10812;51.838;5.838;2023-08-20T14:47:33;2.38;;;1.08;;
21305;SDS011;10812;51.838;5.838;2023-08-20T14:50:03;1.10;;;0.73;;
21305;SDS011;10812;51.838;5.838;2023-08-20T14:52:33;1.23;;;0.88;;
21305;SDS011;10812;51.838;5.838;2023-08-20T14:55:02;1.45;;;0.90;;
21305;SDS011;10812;51.838;5.838;2023-08-20T14:57:34;6.07;;;1.35;;
21305;SDS011;10812;51.838;5.838;2023-08-20T15:00:17;2.47;;;1.10;;
21305;SDS011;10812;51.838;5.838;2023-08-20T15:02:49;2.33;;;1.08;;
21305;SDS011;10812;51.838;5.838;2023-08-20T15:05:18;4.03;;;1.20;;
21305;SDS011;10812;51.838;5.838;2023-08-20T15:07:47;3.35;;;0.90;;
21305;SDS011;10812;51.838;5.838;2023-08-20T15:10:15;2.63;;;1.00;;
21305;SDS011;10812;51.838;5.838;2023-08-20T15:12:43;3.40;;;1.35;;
21305;SDS011;10812;51.838;5.838;2023-08-20T15:15:11;0.98;;;0.60;;
21305;SDS011;10812;51.838;5.838;2023-08-20T15:17:39;2.85;;;1.10;;
21305;SDS011;10812;51.838;5.838;2023-08-20T15:20:08;2.55;;;0.85;;
21305;SDS011;10812;51.838;5.838;2023-08-20T15:22:39;2.47;;;1.55;;
21305;SDS011;10812;51.838;5.838;2023-08-20T15:25:07;2.78;;;0.90;;
21305;SDS011;10812;51.838;5.838;2023-08-20T15:27:37;2.78;;;0.90;;
21305;SDS011;10812;51.838;5.838;2023-08-20T15:30:05;2.78;;;0.88;;
21305;SDS011;10812;51.838;5.838;2023-08-20T15:32:35;2.72;;;1.05;;
21305;SDS011;10812;51.838;5.838;2023-08-20T15:35:03;3.92;;;0.90;;
21305;SDS011;10812;51.838;5.838;2023-08-20T15:37:33;3.35;;;1.63;;
21305;SDS011;10812;51.838;5.838;2023-08-20T15:40:03;3.00;;;1.20;;
21305;SDS011;10812;51.838;5.838;2023-08-20T15:42:38;2.33;;;1.05;;
21305;SDS011;10812;51.838;5.838;2023-08-20T15:45:07;1.42;;;0.90;;
21305;SDS011;10812;51.838;5.838;2023-08-20T15:47:35;6.63;;;1.42;;
21305;SDS011;10812;51.838;5.838;2023-08-20T15:50:04;3.63;;;1.20;;
21305;SDS011;10812;51.838;5.838;2023-08-20T15:52:33;2.58;;;0.80;;
21305;SDS011;10812;51.838;5.838;2023-08-20T15:55:01;2.53;;;1.05;;
21305;SDS011;10812;51.838;5.838;2023-08-20T15:57:31;1.98;;;0.80;;
21305;SDS011;10812;51.838;5.838;2023-08-20T15:59:59;1.88;;;1.00;;
21305;SDS011;10812;51.838;5.838;2023-08-20T16:02:27;5.32;;;1.25;;
21305;SDS011;10812;51.838;5.838;2023-08-20T16:04:56;1.90;;;0.90;;
21305;SDS011;10812;51.838;5.838;2023-08-20T16:07:24;4.55;;;1.20;;
21305;SDS011;10812;51.838;5.838;2023-08-20T16:09:52;2.90;;;1.20;;
21305;SDS011;10812;51.838;5.838;2023-08-20T16:12:21;2.28;;;0.98;;
21305;SDS011;10812;51.838;5.838;2023-08-20T16:14:49;2.40;;;0.82;;
21305;SDS011;10812;51.838;5.838;2023-08-20T16:17:17;2.60;;;1.20;;
21305;SDS011;10812;51.838;5.838;2023-08-20T16:19:45;2.78;;;0.95;;
21305;SDS011;10812;51.838;5.838;2023-08-20T16:22:13;2.63;;;1.00;;
21305;SDS011;10812;51.838;5.838;2023-08-20T16:24:41;1.52;;;0.98;;
21305;SDS011;10812;51.838;5.838;2023-08-20T16:27:09;1.27;;;0.77;;
21305;SDS011;10812;51.838;5.838;2023-08-20T16:29:38;1.67;;;1.00;;
21305;SDS011;10812;51.838;5.838;2023-08-20T16:32:06;4.85;;;1.50;;
21305;SDS011;10812;51.838;5.838;2023-08-20T16:34:35;3.38;;;0.98;;
21305;SDS011;10812;51.838;5.838;2023-08-20T16:37:03;2.90;;;1.23;;
21305;SDS011;10812;51.838;5.838;2023-08-20T16:39:31;2.75;;;1.30;;
21305;SDS011;10812;51.838;5.838;2023-08-20T16:42:01;2.90;;;0.70;;